createdAt,value
2024-05-09T00:00:47.921Z,7.97
2024-05-09T00:03:15.003Z,5.78
2024-05-09T00:05:43.675Z,6.57
2024-05-09T00:08:12.104Z,5.40
2024-05-09T00:10:46.121Z,5.50
2024-05-09T00:13:13.194Z,6.22
2024-05-09T00:15:43.273Z,5.68
2024-05-09T00:18:13.548Z,6.13
2024-05-09T00:20:53.774Z,8.38
2024-05-09T00:23:20.859Z,6.53
2024-05-09T00:25:47.818Z,5.25
2024-05-09T00:28:15.774Z,5.75
2024-05-09T00:30:43.009Z,4.82
2024-05-09T00:33:12.796Z,6.97
2024-05-09T00:35:42.535Z,6.07
2024-05-09T00:38:11.638Z,4.53
2024-05-09T00:40:42.839Z,6.15
2024-05-09T00:43:12.294Z,5.97
2024-05-09T00:45:40.706Z,5.53
2024-05-09T00:48:16.223Z,6.55
2024-05-09T00:51:08.329Z,6.80
2024-05-09T00:53:35.719Z,6.38
2024-05-09T00:56:12.290Z,8.02
2024-05-09T00:58:45.573Z,6.78
2024-05-09T01:01:12.639Z,6.43
2024-05-09T01:03:41.946Z,6.93
2024-05-09T01:06:10.131Z,7.97
2024-05-09T01:08:42.699Z,9.70
2024-05-09T01:11:13.101Z,7.82
2024-05-09T01:13:45.025Z,7.70
2024-05-09T01:16:14.491Z,9.63
2024-05-09T01:18:41.809Z,7.07
2024-05-09T01:21:16.052Z,10.02
2024-05-09T01:26:12.993Z,11.82
2024-05-09T01:28:45.572Z,10.48
2024-05-09T01:31:23.503Z,10.80
2024-05-09T01:33:52.090Z,11.88
2024-05-09T01:36:25.182Z,12.43
2024-05-09T01:39:04.866Z,15.52
2024-05-09T01:41:33.503Z,15.02
2024-05-09T01:44:03.875Z,12.48
2024-05-09T01:46:31.148Z,14.23
2024-05-09T01:49:04.261Z,14.80
2024-05-09T01:51:34.179Z,19.05
2024-05-09T01:54:04.468Z,15.65
2024-05-09T01:56:36.837Z,13.70
2024-05-09T01:59:11.592Z,17.35
2024-05-09T02:01:56.263Z,18.38
2024-05-09T02:04:24.965Z,17.67
2024-05-09T02:06:53.505Z,15.30
2024-05-09T02:09:28.835Z,16.60
2024-05-09T02:11:59.723Z,13.50
2024-05-09T02:14:27.070Z,14.80
2024-05-09T02:16:54.441Z,15.63
2024-05-09T02:19:24.713Z,16.45
2024-05-09T02:21:51.754Z,16.65
2024-05-09T02:24:21.943Z,13.93
2024-05-09T02:26:49.267Z,17.83
2024-05-09T02:29:16.264Z,15.95
2024-05-09T02:31:45.486Z,14.98
2024-05-09T02:34:16.348Z,15.65
2024-05-09T02:36:43.298Z,15.73
2024-05-09T02:39:10.241Z,13.05
2024-05-09T02:41:37.364Z,15.80
2024-05-09T02:44:07.120Z,11.38
2024-05-09T02:46:35.534Z,15.23
2024-05-09T02:49:14.893Z,16.27
2024-05-09T02:51:45.014Z,15.98
2024-05-09T02:54:22.133Z,15.02
2024-05-09T02:56:49.078Z,16.75
2024-05-09T02:59:19.313Z,18.80
2024-05-09T03:01:46.406Z,15.57
2024-05-09T03:04:16.388Z,18.00
2024-05-09T03:06:43.650Z,17.38
2024-05-09T03:09:18.039Z,19.35
2024-05-09T03:11:46.364Z,18.17
2024-05-09T03:14:20.143Z,17.45
2024-05-09T03:16:46.981Z,19.83
2024-05-09T03:19:14.144Z,16.05
2024-05-09T03:21:44.218Z,20.27
2024-05-09T03:24:11.652Z,18.55
2024-05-09T03:26:38.790Z,16.60
2024-05-09T03:29:11.186Z,15.82
2024-05-09T03:31:39.488Z,18.25
2024-05-09T03:34:11.887Z,21.10
2024-05-09T03:36:45.691Z,18.45
2024-05-09T03:39:12.912Z,18.25
2024-05-09T03:41:43.325Z,21.98
2024-05-09T03:44:10.475Z,25.48
2024-05-09T03:46:42.532Z,21.92
2024-05-09T03:49:11.801Z,26.50
2024-05-09T03:51:38.943Z,24.45
2024-05-09T03:54:10.357Z,18.67
2024-05-09T03:56:40.552Z,28.30
2024-05-09T03:59:10.782Z,24.63
2024-05-09T04:01:39.235Z,21.90
2024-05-09T04:04:09.650Z,21.08
2024-05-09T04:06:36.792Z,23.95
2024-05-09T04:09:10.800Z,21.75
2024-05-09T04:11:42.523Z,24.33
2024-05-09T04:14:12.793Z,19.50
2024-05-09T04:16:45.368Z,21.40
2024-05-09T04:19:12.429Z,24.88
2024-05-09T04:21:39.561Z,23.02
2024-05-09T04:24:10.141Z,21.90
2024-05-09T04:26:37.010Z,24.95
2024-05-09T04:29:04.369Z,27.75
2024-05-09T04:31:36.578Z,27.25
2024-05-09T04:34:04.485Z,24.60
2024-05-09T04:36:34.602Z,24.52
2024-05-09T04:39:01.552Z,22.83
2024-05-09T04:41:31.568Z,21.20
2024-05-09T04:44:01.505Z,19.23
2024-05-09T04:46:31.476Z,19.73
2024-05-09T04:48:58.755Z,17.98
2024-05-09T04:51:25.797Z,18.45
2024-05-09T04:53:54.463Z,15.65
2024-05-09T04:56:24.599Z,12.48
2024-05-09T04:58:51.727Z,14.00
2024-05-09T05:01:20.374Z,15.40
2024-05-09T05:03:56.227Z,8.73
2024-05-09T05:06:29.702Z,8.77
2024-05-09T05:08:58.984Z,8.93
2024-05-09T05:11:29.866Z,7.40
2024-05-09T05:14:04.157Z,8.63
2024-05-09T05:16:37.122Z,8.82
2024-05-09T05:19:15.102Z,7.70
2024-05-09T06:03:45.756Z,23.65
2024-05-09T06:06:26.451Z,15.73
2024-05-09T06:08:55.066Z,16.08
2024-05-09T06:11:29.947Z,17.90
2024-05-09T06:14:04.439Z,14.75
2024-05-09T06:16:37.359Z,16.13
2024-05-09T06:19:04.767Z,13.30
2024-05-09T06:21:31.769Z,12.70
2024-05-09T06:23:58.792Z,11.93
2024-05-09T06:26:31.900Z,11.52
2024-05-09T06:29:17.808Z,11.20
2024-05-09T06:31:46.511Z,12.82
2024-05-09T06:34:20.622Z,12.15
2024-05-09T06:36:50.137Z,11.25
2024-05-09T06:39:17.109Z,10.55
2024-05-09T06:41:45.004Z,10.40
2024-05-09T06:44:13.870Z,11.23
2024-05-09T06:46:42.340Z,11.75
2024-05-09T06:49:14.894Z,9.52
2024-05-09T06:51:44.124Z,9.27
2024-05-09T06:54:14.520Z,8.20
2024-05-09T06:56:41.580Z,7.43
2024-05-09T06:59:08.920Z,7.68
2024-05-09T07:01:35.925Z,6.68
2024-05-09T07:04:02.957Z,5.82
2024-05-09T07:06:31.185Z,6.15
2024-05-09T07:09:00.748Z,5.72
2024-05-09T07:11:31.807Z,7.13
2024-05-09T07:13:58.872Z,6.47
2024-05-09T07:16:31.631Z,6.68
2024-05-09T07:19:01.767Z,7.05
2024-05-09T07:21:32.581Z,5.68
2024-05-09T07:24:02.265Z,6.10
2024-05-09T07:26:32.333Z,5.40
2024-05-09T07:29:02.217Z,6.03
2024-05-09T07:31:32.221Z,8.35
2024-05-09T07:34:00.691Z,8.15
2024-05-09T07:36:33.721Z,9.32
2024-05-09T07:39:01.265Z,8.23
2024-05-09T07:41:30.490Z,10.13
2024-05-09T07:44:08.052Z,8.13
2024-05-09T07:50:53.390Z,9.38
2024-05-09T07:53:20.974Z,9.55
2024-05-09T07:54:42.127Z,7.85
2024-05-09T07:57:09.216Z,8.95
2024-05-09T07:59:39.867Z,8.68
2024-05-09T08:02:10.513Z,6.93
2024-05-09T08:04:37.701Z,9.13
2024-05-09T08:07:05.047Z,8.38
2024-05-09T08:09:42.760Z,7.75
2024-05-09T08:12:12.979Z,6.97
2024-05-09T08:14:41.009Z,6.93
2024-05-09T08:17:07.944Z,8.63
2024-05-09T08:19:37.863Z,9.90
2024-05-09T08:22:09.452Z,7.93
2024-05-09T08:24:37.036Z,7.90
2024-05-09T08:27:04.347Z,8.32
2024-05-09T08:29:34.564Z,7.78
2024-05-09T08:32:01.581Z,9.13
2024-05-09T08:34:35.086Z,8.93
2024-05-09T08:37:10.062Z,7.78
2024-05-09T08:39:42.791Z,7.80
2024-05-09T08:42:19.383Z,10.57
2024-05-09T08:50:57.820Z,7.50
2024-05-09T09:19:23.565Z,8.32
2024-05-09T09:31:06.126Z,9.57
2024-05-09T09:41:49.025Z,7.47
2024-05-09T09:44:19.693Z,8.93
2024-05-09T09:49:44.421Z,8.05
2024-05-09T10:05:53.780Z,9.52
2024-05-09T10:11:08.371Z,8.85
2024-05-09T10:13:42.062Z,8.65
2024-05-09T10:16:12.480Z,8.35
2024-05-09T10:18:40.722Z,7.28
2024-05-09T10:21:19.759Z,9.30
2024-05-09T10:26:55.223Z,6.15
2024-05-09T10:29:30.864Z,7.03
2024-05-09T10:31:59.954Z,8.35
2024-05-09T10:34:34.838Z,7.68
2024-05-09T10:37:04.696Z,6.78
2024-05-09T10:39:42.795Z,7.30
2024-05-09T10:42:10.472Z,6.13
2024-05-09T10:44:40.712Z,5.35
2024-05-09T10:47:10.967Z,6.05
2024-05-09T10:49:43.726Z,5.00
2024-05-09T10:52:10.718Z,4.70
2024-05-09T10:54:42.336Z,4.10
2024-05-09T10:57:16.637Z,5.03
2024-05-09T10:59:43.836Z,5.50
2024-05-09T11:02:12.337Z,7.47
2024-05-09T11:04:45.350Z,5.43
2024-05-09T11:07:16.847Z,4.97
2024-05-09T11:09:46.955Z,5.47
2024-05-09T11:12:14.228Z,8.32
2024-05-09T11:15:01.462Z,5.22
2024-05-09T11:17:28.664Z,5.55
2024-05-09T11:19:55.704Z,4.93
2024-05-09T11:22:25.426Z,6.20
2024-05-09T11:24:52.724Z,6.10
2024-05-09T11:27:21.637Z,6.38
2024-05-09T11:29:48.401Z,8.27
2024-05-09T11:32:16.582Z,5.88
2024-05-09T11:34:46.299Z,5.20
2024-05-09T11:37:13.899Z,6.30
2024-05-09T11:39:41.080Z,8.38
2024-05-09T11:42:10.455Z,5.78
2024-05-09T11:44:37.575Z,5.25
2024-05-09T11:47:04.977Z,6.57
2024-05-09T11:49:33.029Z,7.20
2024-05-09T11:52:00.155Z,6.28
2024-05-09T11:54:29.821Z,6.22
2024-05-09T11:56:56.698Z,4.95
2024-05-09T11:59:23.797Z,8.82
2024-05-09T12:01:50.766Z,6.30
2024-05-09T12:04:18.128Z,5.25
2024-05-09T12:06:54.010Z,5.18
2024-05-09T12:09:20.887Z,5.45
2024-05-09T12:11:50.991Z,5.68
2024-05-09T12:14:17.946Z,5.28
2024-05-09T12:16:47.680Z,5.85
2024-05-09T12:19:14.581Z,5.93
2024-05-09T12:21:41.460Z,6.55
2024-05-09T12:24:08.288Z,4.70
2024-05-09T12:26:35.640Z,8.20
2024-05-09T12:29:02.461Z,4.95
2024-05-09T12:31:32.068Z,6.30
2024-05-09T12:34:02.309Z,6.75
2024-05-09T12:36:31.900Z,5.28
2024-05-09T12:39:08.744Z,6.20
2024-05-09T12:41:36.093Z,5.32
2024-05-09T12:44:05.568Z,5.60
2024-05-09T12:46:35.154Z,5.30
2024-05-09T12:49:02.232Z,5.72
2024-05-09T12:51:32.452Z,5.03
2024-05-09T12:54:01.756Z,5.45
2024-05-09T12:56:34.417Z,7.03
2024-05-09T12:59:01.136Z,5.13
2024-05-09T13:01:30.741Z,4.68
2024-05-09T13:03:57.810Z,4.53
2024-05-09T13:06:24.796Z,5.80
2024-05-09T13:08:54.705Z,5.45
2024-05-09T13:11:24.126Z,5.55
2024-05-09T13:13:54.247Z,6.57
2024-05-09T13:16:21.091Z,6.30
2024-05-09T13:18:53.461Z,5.45
2024-05-09T13:21:20.334Z,5.80
2024-05-09T13:23:48.463Z,5.53
2024-05-09T13:26:20.657Z,5.63
2024-05-09T13:28:50.027Z,5.38
2024-05-09T13:31:20.351Z,5.40
2024-05-09T13:33:47.466Z,4.47
2024-05-09T13:36:23.228Z,5.38
2024-05-09T13:38:57.625Z,5.10
2024-05-09T13:41:24.575Z,5.53
2024-05-09T13:43:51.397Z,5.47
2024-05-09T13:46:21.467Z,4.28
2024-05-09T13:48:51.410Z,4.75
2024-05-09T13:51:36.270Z,4.05
2024-05-09T13:54:03.174Z,3.70
2024-05-09T13:56:39.252Z,4.70
2024-05-09T13:59:06.596Z,5.32
2024-05-09T14:01:33.832Z,4.47
2024-05-09T14:04:04.096Z,5.93
2024-05-09T14:06:34.147Z,5.18
2024-05-09T14:09:01.425Z,5.05
2024-05-09T14:11:34.464Z,4.35
2024-05-09T14:14:04.111Z,6.13
2024-05-09T14:16:34.885Z,4.57
2024-05-09T14:19:02.323Z,5.57
2024-05-09T14:21:35.321Z,4.93
2024-05-09T14:24:02.082Z,4.30
2024-05-09T14:26:37.778Z,4.38
2024-05-09T14:29:04.869Z,4.32
2024-05-09T14:31:38.745Z,3.60
2024-05-09T14:34:06.386Z,4.25
2024-05-09T14:36:33.937Z,3.75
2024-05-09T14:39:03.920Z,3.45
2024-05-09T14:41:30.686Z,4.05
2024-05-09T14:43:58.449Z,4.80
2024-05-09T14:46:26.859Z,3.60
2024-05-09T14:48:53.964Z,4.20
2024-05-09T14:51:25.531Z,4.47
2024-05-09T14:53:52.382Z,2.83
2024-05-09T14:56:19.425Z,4.32
2024-05-09T14:58:46.517Z,2.58
2024-05-09T15:01:13.481Z,2.88
2024-05-09T15:03:40.906Z,3.63
2024-05-09T15:06:07.998Z,2.80
2024-05-09T15:08:35.162Z,3.55
2024-05-09T15:11:05.150Z,3.47
2024-05-09T15:13:32.477Z,2.80
2024-05-09T15:16:08.083Z,4.43
2024-05-09T15:18:42.218Z,4.80
2024-05-09T15:21:10.649Z,3.58
2024-05-09T15:23:40.796Z,3.35
2024-05-09T15:26:07.807Z,4.75
2024-05-09T15:28:37.654Z,3.25
2024-05-09T15:31:07.489Z,3.80
2024-05-09T15:33:37.549Z,3.22
2024-05-09T15:36:06.368Z,3.50
2024-05-09T15:38:35.568Z,5.05
2024-05-09T15:41:05.766Z,8.52
2024-05-09T15:43:32.809Z,8.02
2024-05-09T15:46:03.253Z,4.97
2024-05-09T15:48:30.371Z,4.90
2024-05-09T15:51:02.003Z,6.25
2024-05-09T15:53:29.340Z,4.47
2024-05-09T15:55:56.772Z,3.47
2024-05-09T15:58:26.278Z,4.63
2024-05-09T16:00:53.372Z,6.28
2024-05-09T16:03:21.402Z,7.28
2024-05-09T16:05:51.613Z,5.78
2024-05-09T16:08:18.564Z,6.07
2024-05-09T16:19:00.725Z,6.80
2024-05-09T16:24:14.871Z,4.03
2024-05-09T18:50:35.854Z,7.38
2024-05-09T19:31:09.549Z,8.32
2024-05-09T19:44:28.827Z,6.22
2024-05-09T19:49:52.255Z,4.68
2024-05-09T20:24:57.088Z,6.90
2024-05-09T20:46:18.452Z,7.35
2024-05-09T20:48:49.065Z,10.40
2024-05-09T20:51:21.888Z,10.65
2024-05-09T20:53:51.351Z,8.57
2024-05-09T20:56:22.510Z,11.35
2024-05-09T20:58:51.859Z,12.00
2024-05-09T21:01:27.859Z,9.40
2024-05-09T21:03:54.906Z,9.35
2024-05-09T21:06:21.869Z,10.75
2024-05-09T21:08:58.813Z,9.38
2024-05-09T21:11:28.254Z,11.30
2024-05-09T21:13:55.088Z,11.60
2024-05-09T21:16:24.446Z,9.75
2024-05-09T21:18:51.280Z,10.02
2024-05-09T21:21:21.243Z,10.23
2024-05-09T21:23:56.665Z,11.40
2024-05-09T21:26:25.447Z,10.82
2024-05-09T21:28:52.182Z,9.93
2024-05-09T21:31:19.039Z,10.20
2024-05-09T21:33:57.565Z,10.93
2024-05-09T21:36:24.395Z,11.73
2024-05-09T21:38:51.156Z,10.98
2024-05-09T21:41:19.846Z,10.85
2024-05-09T21:43:46.907Z,11.20
2024-05-09T21:46:13.935Z,10.45
2024-05-09T21:48:40.968Z,10.93
2024-05-09T21:51:16.074Z,11.20
2024-05-09T21:53:42.833Z,11.57
2024-05-09T21:56:09.633Z,11.35
2024-05-09T21:58:37.440Z,10.70
2024-05-09T22:01:06.008Z,12.27
2024-05-09T22:03:33.202Z,11.48
2024-05-09T22:06:00.609Z,12.43
2024-05-09T22:08:27.446Z,15.15
2024-05-09T22:10:54.396Z,11.70
2024-05-09T22:13:21.477Z,12.73
2024-05-09T22:15:53.798Z,11.88
2024-05-09T22:18:20.758Z,11.65
2024-05-09T22:21:14.594Z,12.98
2024-05-09T22:23:41.386Z,11.05
2024-05-09T22:26:10.994Z,14.13
2024-05-09T22:28:38.277Z,11.85
2024-05-09T22:31:14.199Z,16.20
2024-05-09T22:33:42.740Z,13.75
2024-05-09T22:36:11.744Z,14.30
2024-05-09T22:38:38.528Z,15.35
2024-05-09T22:41:09.358Z,16.05
2024-05-09T22:43:36.182Z,16.20
2024-05-09T22:46:03.711Z,20.25
2024-05-09T22:48:30.623Z,16.63
2024-05-09T22:51:03.950Z,19.02
2024-05-09T22:53:30.840Z,17.80
2024-05-09T22:56:03.703Z,17.38
2024-05-09T22:58:33.148Z,16.45
2024-05-09T23:01:03.320Z,16.73
2024-05-09T23:03:30.374Z,14.35
2024-05-09T23:06:00.415Z,15.05
2024-05-09T23:08:30.316Z,19.23
2024-05-09T23:11:09.261Z,17.05
2024-05-09T23:13:36.572Z,17.92
2024-05-09T23:16:03.834Z,17.20
2024-05-09T23:18:30.766Z,17.38
2024-05-09T23:21:04.011Z,17.40
2024-05-09T23:23:33.105Z,19.20
2024-05-09T23:26:02.304Z,16.40
2024-05-09T23:28:29.393Z,16.38
2024-05-09T23:30:56.350Z,17.85
2024-05-09T23:33:24.638Z,17.92
2024-05-09T23:35:54.974Z,15.43
2024-05-09T23:38:23.750Z,15.30
2024-05-09T23:41:00.195Z,16.00
2024-05-09T23:43:31.721Z,16.50
2024-05-09T23:46:10.371Z,16.27
2024-05-09T23:48:37.289Z,15.43
2024-05-09T23:53:47.754Z,16.27
2024-05-09T23:56:18.823Z,15.20
2024-05-09T23:58:54.468Z,16.98
